sensor_id;sensor_type;location;lat;lon;timestamp;pressure;altitude;pressure_sealevel;temperature
68952;BMP180;56000;51.146;17.112;2024-01-06T00:02:18;99155.00;;;2.62
68952;BMP180;56000;51.146;17.112;2024-01-06T00:04:51;99151.40;;;2.60
68952;BMP180;56000;51.146;17.112;2024-01-06T00:07:24;99155.60;;;2.60
68952;BMP180;56000;51.146;17.112;2024-01-06T00:09:57;99162.80;;;2.60
68952;BMP180;56000;51.146;17.112;2024-01-06T00:12:30;99171.00;;;2.60
68952;BMP180;56000;51.146;17.112;2024-01-06T00:15:03;99170.00;;;2.60
68952;BMP180;56000;51.146;17.112;2024-01-06T00:17:36;99172.80;;;2.60
68952;BMP180;56000;51.146;17.112;2024-01-06T00:20:11;99173.80;;;2.62
68952;BMP180;56000;51.146;17.112;2024-01-06T00:22:44;99175.40;;;2.70
68952;BMP180;56000;51.146;17.112;2024-01-06T00:25:17;99174.20;;;2.70
68952;BMP180;56000;51.146;17.112;2024-01-06T00:27:50;99167.80;;;2.70
68952;BMP180;56000;51.146;17.112;2024-01-06T00:30:23;99168.20;;;2.70
68952;BMP180;56000;51.146;17.112;2024-01-06T00:32:56;99166.60;;;2.70
68952;BMP180;56000;51.146;17.112;2024-01-06T00:35:29;99171.80;;;2.70
68952;BMP180;56000;51.146;17.112;2024-01-06T00:38:02;99171.80;;;2.70
68952;BMP180;56000;51.146;17.112;2024-01-06T00:40:35;99175.00;;;2.70
68952;BMP180;56000;51.146;17.112;2024-01-06T00:43:08;99177.40;;;2.70
68952;BMP180;56000;51.146;17.112;2024-01-06T00:45:41;99181.80;;;2.70
68952;BMP180;56000;51.146;17.112;2024-01-06T00:48:14;99177.00;;;2.70
68952;BMP180;56000;51.146;17.112;2024-01-06T00:50:47;99180.80;;;2.70
68952;BMP180;56000;51.146;17.112;2024-01-06T00:53:21;99183.60;;;2.70
68952;BMP180;56000;51.146;17.112;2024-01-06T00:55:54;99189.80;;;2.70
68952;BMP180;56000;51.146;17.112;2024-01-06T00:58:26;99184.80;;;2.70
68952;BMP180;56000;51.146;17.112;2024-01-06T01:00:59;99184.80;;;2.70
68952;BMP180;56000;51.146;17.112;2024-01-06T01:03:32;99186.20;;;2.70
68952;BMP180;56000;51.146;17.112;2024-01-06T01:06:06;99183.80;;;2.80
68952;BMP180;56000;51.146;17.112;2024-01-06T01:08:39;99188.20;;;2.80
68952;BMP180;56000;51.146;17.112;2024-01-06T01:11:12;99189.60;;;2.90
68952;BMP180;56000;51.146;17.112;2024-01-06T01:13:45;99182.80;;;2.90
68952;BMP180;56000;51.146;17.112;2024-01-06T01:16:18;99178.80;;;2.90
68952;BMP180;56000;51.146;17.112;2024-01-06T01:18:51;99185.80;;;2.90
68952;BMP180;56000;51.146;17.112;2024-01-06T01:21:24;99189.40;;;2.98
68952;BMP180;56000;51.146;17.112;2024-01-06T01:23:57;99188.40;;;3.00
68952;BMP180;56000;51.146;17.112;2024-01-06T01:26:30;99196.20;;;3.00
68952;BMP180;56000;51.146;17.112;2024-01-06T01:29:06;99200.80;;;3.00
68952;BMP180;56000;51.146;17.112;2024-01-06T01:31:39;99201.20;;;3.00
68952;BMP180;56000;51.146;17.112;2024-01-06T01:34:12;99203.60;;;3.00
68952;BMP180;56000;51.146;17.112;2024-01-06T01:36:45;99210.60;;;3.00
68952;BMP180;56000;51.146;17.112;2024-01-06T01:39:18;99209.00;;;3.02
68952;BMP180;56000;51.146;17.112;2024-01-06T01:41:51;99209.00;;;3.10
68952;BMP180;56000;51.146;17.112;2024-01-06T01:44:23;99204.60;;;3.04
68952;BMP180;56000;51.146;17.112;2024-01-06T01:46:56;99199.40;;;3.00
68952;BMP180;56000;51.146;17.112;2024-01-06T01:49:29;99205.00;;;2.98
68952;BMP180;56000;51.146;17.112;2024-01-06T01:52:04;99205.80;;;2.90
68952;BMP180;56000;51.146;17.112;2024-01-06T01:54:37;99202.80;;;2.90
68952;BMP180;56000;51.146;17.112;2024-01-06T01:57:11;99203.80;;;2.82
68952;BMP180;56000;51.146;17.112;2024-01-06T01:59:45;99215.20;;;2.80
68952;BMP180;56000;51.146;17.112;2024-01-06T02:02:19;99219.20;;;2.80
68952;BMP180;56000;51.146;17.112;2024-01-06T02:04:53;99215.60;;;2.80
68952;BMP180;56000;51.146;17.112;2024-01-06T02:07:26;99204.60;;;2.80
68952;BMP180;56000;51.146;17.112;2024-01-06T02:09:59;99202.40;;;2.80
68952;BMP180;56000;51.146;17.112;2024-01-06T02:12:32;99198.20;;;2.80
68952;BMP180;56000;51.146;17.112;2024-01-06T02:15:06;99200.40;;;2.80
68952;BMP180;56000;51.146;17.112;2024-01-06T02:17:39;99202.60;;;2.80
68952;BMP180;56000;51.146;17.112;2024-01-06T02:20:14;99195.60;;;2.80
68952;BMP180;56000;51.146;17.112;2024-01-06T02:22:51;99194.40;;;2.80
68952;BMP180;56000;51.146;17.112;2024-01-06T02:25:24;99190.80;;;2.80
68952;BMP180;56000;51.146;17.112;2024-01-06T02:27:57;99192.80;;;2.80
68952;BMP180;56000;51.146;17.112;2024-01-06T02:30:30;99197.80;;;2.80
68952;BMP180;56000;51.146;17.112;2024-01-06T02:33:03;99192.20;;;2.70
68952;BMP180;56000;51.146;17.112;2024-01-06T02:35:36;99186.00;;;2.70
68952;BMP180;56000;51.146;17.112;2024-01-06T02:38:09;99179.40;;;2.70
68952;BMP180;56000;51.146;17.112;2024-01-06T02:40:41;99177.40;;;2.70
68952;BMP180;56000;51.146;17.112;2024-01-06T02:43:15;99186.60;;;2.68
68952;BMP180;56000;51.146;17.112;2024-01-06T02:45:48;99182.00;;;2.62
68952;BMP180;56000;51.146;17.112;2024-01-06T02:48:21;99181.00;;;2.60
68952;BMP180;56000;51.146;17.112;2024-01-06T02:50:54;99183.60;;;2.60
68952;BMP180;56000;51.146;17.112;2024-01-06T02:53:27;99187.60;;;2.60
68952;BMP180;56000;51.146;17.112;2024-01-06T02:56:00;99195.20;;;2.60
68952;BMP180;56000;51.146;17.112;2024-01-06T02:58:32;99201.80;;;2.60
68952;BMP180;56000;51.146;17.112;2024-01-06T03:01:05;99203.60;;;2.60
68952;BMP180;56000;51.146;17.112;2024-01-06T03:03:38;99202.60;;;2.50
68952;BMP180;56000;51.146;17.112;2024-01-06T03:06:11;99206.80;;;2.50
68952;BMP180;56000;51.146;17.112;2024-01-06T03:08:44;99203.60;;;2.50
68952;BMP180;56000;51.146;17.112;2024-01-06T03:11:17;99196.80;;;2.50
68952;BMP180;56000;51.146;17.112;2024-01-06T03:13:49;99194.80;;;2.50
68952;BMP180;56000;51.146;17.112;2024-01-06T03:16:22;99187.20;;;2.46
68952;BMP180;56000;51.146;17.112;2024-01-06T03:18:55;99184.00;;;2.42
68952;BMP180;56000;51.146;17.112;2024-01-06T03:21:28;99186.20;;;2.40
68952;BMP180;56000;51.146;17.112;2024-01-06T03:24:01;99192.20;;;2.46
68952;BMP180;56000;51.146;17.112;2024-01-06T03:26:34;99194.20;;;2.42
68952;BMP180;56000;51.146;17.112;2024-01-06T03:29:06;99201.60;;;2.40
68952;BMP180;56000;51.146;17.112;2024-01-06T03:31:43;99206.20;;;2.40
68952;BMP180;56000;51.146;17.112;2024-01-06T03:34:16;99213.20;;;2.50
68952;BMP180;56000;51.146;17.112;2024-01-06T03:36:49;99212.80;;;2.50
68952;BMP180;56000;51.146;17.112;2024-01-06T03:39:22;99215.40;;;2.50
68952;BMP180;56000;51.146;17.112;2024-01-06T03:41:54;99216.40;;;2.42
68952;BMP180;56000;51.146;17.112;2024-01-06T03:44:27;99212.40;;;2.44
68952;BMP180;56000;51.146;17.112;2024-01-06T03:47:02;99210.60;;;2.50
68952;BMP180;56000;51.146;17.112;2024-01-06T03:49:35;99217.20;;;2.50
68952;BMP180;56000;51.146;17.112;2024-01-06T03:52:08;99223.80;;;2.50
68952;BMP180;56000;51.146;17.112;2024-01-06T03:54:41;99224.00;;;2.50
68952;BMP180;56000;51.146;17.112;2024-01-06T03:57:14;99228.40;;;2.40
68952;BMP180;56000;51.146;17.112;2024-01-06T03:59:46;99228.00;;;2.40
68952;BMP180;56000;51.146;17.112;2024-01-06T04:02:19;99229.60;;;2.44
68952;BMP180;56000;51.146;17.112;2024-01-06T04:04:52;99228.60;;;2.46
68952;BMP180;56000;51.146;17.112;2024-01-06T04:07:25;99232.20;;;2.50
68952;BMP180;56000;51.146;17.112;2024-01-06T04:09:58;99225.20;;;2.50
68952;BMP180;56000;51.146;17.112;2024-01-06T04:12:31;99222.80;;;2.50
68952;BMP180;56000;51.146;17.112;2024-01-06T04:15:05;99226.20;;;2.56
68952;BMP180;56000;51.146;17.112;2024-01-06T04:17:37;99222.80;;;2.54
68952;BMP180;56000;51.146;17.112;2024-01-06T04:20:12;99229.40;;;2.50
68952;BMP180;56000;51.146;17.112;2024-01-06T04:22:45;99234.40;;;2.50
68952;BMP180;56000;51.146;17.112;2024-01-06T04:25:17;99235.00;;;2.50
68952;BMP180;56000;51.146;17.112;2024-01-06T04:27:50;99239.20;;;2.50
68952;BMP180;56000;51.146;17.112;2024-01-06T04:30:23;99234.20;;;2.50
68952;BMP180;56000;51.146;17.112;2024-01-06T04:32:57;99239.80;;;2.50
68952;BMP180;56000;51.146;17.112;2024-01-06T04:35:30;99242.60;;;2.50
68952;BMP180;56000;51.146;17.112;2024-01-06T04:38:03;99242.00;;;2.50
68952;BMP180;56000;51.146;17.112;2024-01-06T04:40:36;99243.80;;;2.50
68952;BMP180;56000;51.146;17.112;2024-01-06T04:43:08;99246.60;;;2.50
68952;BMP180;56000;51.146;17.112;2024-01-06T04:45:41;99238.80;;;2.50
68952;BMP180;56000;51.146;17.112;2024-01-06T04:48:14;99235.80;;;2.50
68952;BMP180;56000;51.146;17.112;2024-01-06T04:50:47;99236.00;;;2.50
68952;BMP180;56000;51.146;17.112;2024-01-06T04:53:20;99242.40;;;2.50
68952;BMP180;56000;51.146;17.112;2024-01-06T04:55:53;99247.40;;;2.50
68952;BMP180;56000;51.146;17.112;2024-01-06T04:58:26;99244.40;;;2.50
68952;BMP180;56000;51.146;17.112;2024-01-06T05:00:59;99245.20;;;2.50
68952;BMP180;56000;51.146;17.112;2024-01-06T05:03:32;99245.60;;;2.50
68952;BMP180;56000;51.146;17.112;2024-01-06T05:06:05;99253.00;;;2.50
68952;BMP180;56000;51.146;17.112;2024-01-06T05:08:38;99253.80;;;2.50
68952;BMP180;56000;51.146;17.112;2024-01-06T05:11:16;99256.00;;;2.50
68952;BMP180;56000;51.146;17.112;2024-01-06T05:13:49;99262.20;;;2.50
68952;BMP180;56000;51.146;17.112;2024-01-06T05:16:21;99270.40;;;2.50
68952;BMP180;56000;51.146;17.112;2024-01-06T05:18:54;99269.60;;;2.52
68952;BMP180;56000;51.146;17.112;2024-01-06T05:21:27;99273.80;;;2.54
68952;BMP180;56000;51.146;17.112;2024-01-06T05:24:00;99281.60;;;2.50
68952;BMP180;56000;51.146;17.112;2024-01-06T05:26:34;99292.80;;;2.50
68952;BMP180;56000;51.146;17.112;2024-01-06T05:29:07;99294.40;;;2.50
68952;BMP180;56000;51.146;17.112;2024-01-06T05:31:40;99294.40;;;2.50
68952;BMP180;56000;51.146;17.112;2024-01-06T05:34:13;99296.80;;;2.50
68952;BMP180;56000;51.146;17.112;2024-01-06T05:36:46;99298.40;;;2.52
68952;BMP180;56000;51.146;17.112;2024-01-06T05:39:19;99302.20;;;2.60
68952;BMP180;56000;51.146;17.112;2024-01-06T05:41:52;99305.40;;;2.60
68952;BMP180;56000;51.146;17.112;2024-01-06T05:44:24;99313.00;;;2.60
68952;BMP180;56000;51.146;17.112;2024-01-06T05:46:57;99308.40;;;2.60
68952;BMP180;56000;51.146;17.112;2024-01-06T05:49:30;99303.00;;;2.60
68952;BMP180;56000;51.146;17.112;2024-01-06T05:52:03;99307.80;;;2.50
68952;BMP180;56000;51.146;17.112;2024-01-06T05:54:36;99315.00;;;2.42
68952;BMP180;56000;51.146;17.112;2024-01-06T05:57:12;99322.60;;;2.40
68952;BMP180;56000;51.146;17.112;2024-01-06T05:59:45;99327.60;;;2.40
68952;BMP180;56000;51.146;17.112;2024-01-06T06:02:18;99326.00;;;2.40
68952;BMP180;56000;51.146;17.112;2024-01-06T06:04:51;99320.80;;;2.50
68952;BMP180;56000;51.146;17.112;2024-01-06T06:07:24;99323.80;;;2.50
68952;BMP180;56000;51.146;17.112;2024-01-06T06:09:57;99326.20;;;2.50
68952;BMP180;56000;51.146;17.112;2024-01-06T06:12:30;99332.40;;;2.42
68952;BMP180;56000;51.146;17.112;2024-01-06T06:15:03;99333.60;;;2.40
68952;BMP180;56000;51.146;17.112;2024-01-06T06:17:38;99335.00;;;2.40
68952;BMP180;56000;51.146;17.112;2024-01-06T06:20:12;99331.80;;;2.40
68952;BMP180;56000;51.146;17.112;2024-01-06T06:22:45;99331.80;;;2.36
68952;BMP180;56000;51.146;17.112;2024-01-06T06:25:18;99332.60;;;2.30
68952;BMP180;56000;51.146;17.112;2024-01-06T06:30:41;99335.00;;;2.20
68952;BMP180;56000;51.146;17.112;2024-01-06T06:33:14;99337.80;;;2.20
68952;BMP180;56000;51.146;17.112;2024-01-06T06:35:47;99333.00;;;2.20
68952;BMP180;56000;51.146;17.112;2024-01-06T06:38:20;99337.60;;;2.20
68952;BMP180;56000;51.146;17.112;2024-01-06T06:40:53;99341.40;;;2.20
68952;BMP180;56000;51.146;17.112;2024-01-06T06:43:26;99352.60;;;2.20
68952;BMP180;56000;51.146;17.112;2024-01-06T06:45:59;99351.60;;;2.20
68952;BMP180;56000;51.146;17.112;2024-01-06T06:48:31;99360.00;;;2.20
68952;BMP180;56000;51.146;17.112;2024-01-06T06:51:05;99363.00;;;2.20
68952;BMP180;56000;51.146;17.112;2024-01-06T06:53:37;99366.80;;;2.20
68952;BMP180;56000;51.146;17.112;2024-01-06T06:56:10;99369.20;;;2.20
68952;BMP180;56000;51.146;17.112;2024-01-06T06:58:43;99380.40;;;2.18
68952;BMP180;56000;51.146;17.112;2024-01-06T07:01:18;99383.80;;;2.12
68952;BMP180;56000;51.146;17.112;2024-01-06T07:03:50;99383.40;;;2.14
68952;BMP180;56000;51.146;17.112;2024-01-06T07:06:23;99385.80;;;2.20
68952;BMP180;56000;51.146;17.112;2024-01-06T07:08:56;99389.60;;;2.20
68952;BMP180;56000;51.146;17.112;2024-01-06T07:11:28;99383.60;;;2.20
68952;BMP180;56000;51.146;17.112;2024-01-06T07:14:01;99384.80;;;2.22
68952;BMP180;56000;51.146;17.112;2024-01-06T07:16:34;99381.80;;;2.30
68952;BMP180;56000;51.146;17.112;2024-01-06T07:19:07;99382.80;;;2.38
68952;BMP180;56000;51.146;17.112;2024-01-06T07:21:40;99387.60;;;2.44
68952;BMP180;56000;51.146;17.112;2024-01-06T07:24:12;99388.60;;;2.50
68952;BMP180;56000;51.146;17.112;2024-01-06T07:26:46;99396.60;;;2.56
68952;BMP180;56000;51.146;17.112;2024-01-06T07:29:18;99396.60;;;2.56
68952;BMP180;56000;51.146;17.112;2024-01-06T07:31:51;99392.80;;;2.50
68952;BMP180;56000;51.146;17.112;2024-01-06T07:34:24;99393.80;;;2.50
68952;BMP180;56000;51.146;17.112;2024-01-06T07:36:58;99401.60;;;2.48
68952;BMP180;56000;51.146;17.112;2024-01-06T07:39:31;99410.80;;;2.40
68952;BMP180;56000;51.146;17.112;2024-01-06T07:42:05;99408.80;;;2.50
68952;BMP180;56000;51.146;17.112;2024-01-06T07:44:38;99411.00;;;2.50
68952;BMP180;56000;51.146;17.112;2024-01-06T07:47:11;99417.40;;;2.50
68952;BMP180;56000;51.146;17.112;2024-01-06T07:49:43;99427.40;;;2.50
68952;BMP180;56000;51.146;17.112;2024-01-06T07:52:18;99433.40;;;2.50
68952;BMP180;56000;51.146;17.112;2024-01-06T07:54:51;99431.00;;;2.42
68952;BMP180;56000;51.146;17.112;2024-01-06T07:57:24;99431.60;;;2.40
68952;BMP180;56000;51.146;17.112;2024-01-06T07:59:57;99434.60;;;2.40
68952;BMP180;56000;51.146;17.112;2024-01-06T08:02:42;99437.40;;;2.40
68952;BMP180;56000;51.146;17.112;2024-01-06T08:05:15;99435.20;;;2.40
68952;BMP180;56000;51.146;17.112;2024-01-06T08:07:48;99441.40;;;2.40
68952;BMP180;56000;51.146;17.112;2024-01-06T08:10:21;99442.80;;;2.40
68952;BMP180;56000;51.146;17.112;2024-01-06T08:12:54;99445.00;;;2.40
68952;BMP180;56000;51.146;17.112;2024-01-06T08:15:27;99452.20;;;2.40
68952;BMP180;56000;51.146;17.112;2024-01-06T08:17:59;99448.80;;;2.40
68952;BMP180;56000;51.146;17.112;2024-01-06T08:20:32;99453.40;;;2.40
68952;BMP180;56000;51.146;17.112;2024-01-06T08:23:06;99456.40;;;2.40
68952;BMP180;56000;51.146;17.112;2024-01-06T08:25:39;99465.00;;;2.40
68952;BMP180;56000;51.146;17.112;2024-01-06T08:28:11;99468.20;;;2.40
68952;BMP180;56000;51.146;17.112;2024-01-06T08:30:46;99471.80;;;2.40
68952;BMP180;56000;51.146;17.112;2024-01-06T08:33:19;99475.60;;;2.40
68952;BMP180;56000;51.146;17.112;2024-01-06T08:35:52;99477.40;;;2.40
68952;BMP180;56000;51.146;17.112;2024-01-06T08:38:24;99482.20;;;2.40
68952;BMP180;56000;51.146;17.112;2024-01-06T08:40:57;99480.60;;;2.40
68952;BMP180;56000;51.146;17.112;2024-01-06T08:43:30;99485.40;;;2.40
68952;BMP180;56000;51.146;17.112;2024-01-06T08:46:03;99487.80;;;2.50
68952;BMP180;56000;51.146;17.112;2024-01-06T08:48:37;99494.60;;;2.50
68952;BMP180;56000;51.146;17.112;2024-01-06T08:51:10;99496.80;;;2.50
68952;BMP180;56000;51.146;17.112;2024-01-06T08:53:43;99504.40;;;2.50
68952;BMP180;56000;51.146;17.112;2024-01-06T08:56:16;99506.60;;;2.40
68952;BMP180;56000;51.146;17.112;2024-01-06T08:58:49;99513.20;;;2.40
68952;BMP180;56000;51.146;17.112;2024-01-06T09:01:22;99518.60;;;2.40
68952;BMP180;56000;51.146;17.112;2024-01-06T09:03:55;99517.60;;;2.30
68952;BMP180;56000;51.146;17.112;2024-01-06T09:06:28;99513.80;;;2.30
68952;BMP180;56000;51.146;17.112;2024-01-06T09:09:00;99518.20;;;2.30
68952;BMP180;56000;51.146;17.112;2024-01-06T09:11:33;99518.80;;;2.30
68952;BMP180;56000;51.146;17.112;2024-01-06T09:14:06;99521.40;;;2.30
68952;BMP180;56000;51.146;17.112;2024-01-06T09:16:41;99523.80;;;2.24
68952;BMP180;56000;51.146;17.112;2024-01-06T09:19:14;99528.60;;;2.20
68952;BMP180;56000;51.146;17.112;2024-01-06T09:21:47;99534.00;;;2.20
68952;BMP180;56000;51.146;17.112;2024-01-06T09:24:20;99533.40;;;2.28
68952;BMP180;56000;51.146;17.112;2024-01-06T09:26:52;99540.80;;;2.30
68952;BMP180;56000;51.146;17.112;2024-01-06T09:29:25;99539.40;;;2.30
68952;BMP180;56000;51.146;17.112;2024-01-06T09:31:58;99538.20;;;2.38
68952;BMP180;56000;51.146;17.112;2024-01-06T09:34:31;99538.80;;;2.40
68952;BMP180;56000;51.146;17.112;2024-01-06T09:37:09;99545.60;;;2.40
68952;BMP180;56000;51.146;17.112;2024-01-06T09:39:41;99543.20;;;2.40
68952;BMP180;56000;51.146;17.112;2024-01-06T09:42:14;99546.60;;;2.40
68952;BMP180;56000;51.146;17.112;2024-01-06T09:44:48;99549.80;;;2.40
68952;BMP180;56000;51.146;17.112;2024-01-06T09:47:23;99548.80;;;2.40
68952;BMP180;56000;51.146;17.112;2024-01-06T09:50:00;99547.60;;;2.40
68952;BMP180;56000;51.146;17.112;2024-01-06T09:52:40;99548.80;;;2.44
68952;BMP180;56000;51.146;17.112;2024-01-06T09:55:16;99547.20;;;2.50
68952;BMP180;56000;51.146;17.112;2024-01-06T09:57:49;99545.80;;;2.50
68952;BMP180;56000;51.146;17.112;2024-01-06T10:00:23;99553.80;;;2.50
68952;BMP180;56000;51.146;17.112;2024-01-06T10:02:56;99553.00;;;2.50
68952;BMP180;56000;51.146;17.112;2024-01-06T10:05:29;99550.20;;;2.50
68952;BMP180;56000;51.146;17.112;2024-01-06T10:08:03;99557.80;;;2.44
68952;BMP180;56000;51.146;17.112;2024-01-06T10:10:38;99560.20;;;2.40
68952;BMP180;56000;51.146;17.112;2024-01-06T10:13:11;99560.80;;;2.40
68952;BMP180;56000;51.146;17.112;2024-01-06T10:15:44;99570.00;;;2.30
68952;BMP180;56000;51.146;17.112;2024-01-06T10:18:17;99570.60;;;2.30
68952;BMP180;56000;51.146;17.112;2024-01-06T10:20:51;99569.00;;;2.30
68952;BMP180;56000;51.146;17.112;2024-01-06T10:23:28;99568.60;;;2.30
68952;BMP180;56000;51.146;17.112;2024-01-06T10:26:01;99572.20;;;2.30
68952;BMP180;56000;51.146;17.112;2024-01-06T10:28:36;99575.40;;;2.36
68952;BMP180;56000;51.146;17.112;2024-01-06T10:31:10;99578.20;;;2.30
68952;BMP180;56000;51.146;17.112;2024-01-06T10:33:43;99577.60;;;2.30
68952;BMP180;56000;51.146;17.112;2024-01-06T10:36:17;99573.80;;;2.30
68952;BMP180;56000;51.146;17.112;2024-01-06T10:38:50;99571.40;;;2.26
68952;BMP180;56000;51.146;17.112;2024-01-06T10:41:25;99567.40;;;2.20
68952;BMP180;56000;51.146;17.112;2024-01-06T10:43:59;99566.60;;;2.20
68952;BMP180;56000;51.146;17.112;2024-01-06T10:46:34;99569.40;;;2.30
68952;BMP180;56000;51.146;17.112;2024-01-06T10:49:08;99568.80;;;2.30
68952;BMP180;56000;51.146;17.112;2024-01-06T10:51:42;99568.00;;;2.30
68952;BMP180;56000;51.146;17.112;2024-01-06T10:54:17;99569.20;;;2.30
68952;BMP180;56000;51.146;17.112;2024-01-06T10:56:51;99563.80;;;2.30
68952;BMP180;56000;51.146;17.112;2024-01-06T10:59:25;99556.00;;;2.30
68952;BMP180;56000;51.146;17.112;2024-01-06T11:01:59;99551.20;;;2.30
68952;BMP180;56000;51.146;17.112;2024-01-06T11:04:34;99550.00;;;2.30
68952;BMP180;56000;51.146;17.112;2024-01-06T11:07:07;99548.80;;;2.30
68952;BMP180;56000;51.146;17.112;2024-01-06T11:09:46;99552.20;;;2.30
68952;BMP180;56000;51.146;17.112;2024-01-06T11:12:22;99548.20;;;2.32
68952;BMP180;56000;51.146;17.112;2024-01-06T11:14:57;99547.40;;;2.30
68952;BMP180;56000;51.146;17.112;2024-01-06T11:17:56;99547.20;;;2.30
68952;BMP180;56000;51.146;17.112;2024-01-06T11:20:29;99549.80;;;2.30
68952;BMP180;56000;51.146;17.112;2024-01-06T11:23:19;99553.80;;;2.30
68952;BMP180;56000;51.146;17.112;2024-01-06T11:25:54;99563.60;;;2.20
68952;BMP180;56000;51.146;17.112;2024-01-06T11:28:27;99569.40;;;2.20
68952;BMP180;56000;51.146;17.112;2024-01-06T11:31:10;99575.80;;;2.10
68952;BMP180;56000;51.146;17.112;2024-01-06T11:33:46;99577.40;;;2.08
68952;BMP180;56000;51.146;17.112;2024-01-06T11:36:21;99580.60;;;2.00
68952;BMP180;56000;51.146;17.112;2024-01-06T11:38:55;99580.00;;;2.00
68952;BMP180;56000;51.146;17.112;2024-01-06T11:41:51;99576.80;;;2.00
68952;BMP180;56000;51.146;17.112;2024-01-06T11:44:27;99581.00;;;2.00
68952;BMP180;56000;51.146;17.112;2024-01-06T11:47:00;99582.00;;;2.00
68952;BMP180;56000;51.146;17.112;2024-01-06T11:49:34;99580.40;;;2.00
68952;BMP180;56000;51.146;17.112;2024-01-06T11:52:07;99580.20;;;2.00
68952;BMP180;56000;51.146;17.112;2024-01-06T11:54:40;99577.00;;;2.00
68952;BMP180;56000;51.146;17.112;2024-01-06T11:57:13;99575.80;;;2.00
68952;BMP180;56000;51.146;17.112;2024-01-06T11:59:47;99580.00;;;2.00
68952;BMP180;56000;51.146;17.112;2024-01-06T12:02:21;99580.40;;;2.00
68952;BMP180;56000;51.146;17.112;2024-01-06T12:04:55;99578.80;;;2.00
68952;BMP180;56000;51.146;17.112;2024-01-06T12:07:28;99580.20;;;2.00
68952;BMP180;56000;51.146;17.112;2024-01-06T12:10:07;99578.00;;;2.00
68952;BMP180;56000;51.146;17.112;2024-01-06T12:12:40;99580.40;;;2.00
68952;BMP180;56000;51.146;17.112;2024-01-06T12:15:13;99579.80;;;2.00
68952;BMP180;56000;51.146;17.112;2024-01-06T12:17:46;99578.20;;;2.10
68952;BMP180;56000;51.146;17.112;2024-01-06T12:20:19;99578.80;;;2.10
68952;BMP180;56000;51.146;17.112;2024-01-06T12:22:54;99581.00;;;2.10
68952;BMP180;56000;51.146;17.112;2024-01-06T12:25:28;99588.80;;;2.10
68952;BMP180;56000;51.146;17.112;2024-01-06T12:28:10;99592.00;;;2.10
68952;BMP180;56000;51.146;17.112;2024-01-06T12:30:44;99595.40;;;2.10
68952;BMP180;56000;51.146;17.112;2024-01-06T12:33:17;99596.80;;;2.08
68952;BMP180;56000;51.146;17.112;2024-01-06T12:35:50;99607.20;;;2.00
68952;BMP180;56000;51.146;17.112;2024-01-06T12:38:25;99604.40;;;2.00
68952;BMP180;56000;51.146;17.112;2024-01-06T12:40:59;99599.00;;;2.00
68952;BMP180;56000;51.146;17.112;2024-01-06T12:43:34;99594.80;;;2.00
68952;BMP180;56000;51.146;17.112;2024-01-06T12:46:09;99599.20;;;2.00
68952;BMP180;56000;51.146;17.112;2024-01-06T12:48:42;99595.80;;;2.00
68952;BMP180;56000;51.146;17.112;2024-01-06T12:51:16;99603.20;;;2.10
68952;BMP180;56000;51.146;17.112;2024-01-06T12:53:48;99604.00;;;2.10
68952;BMP180;56000;51.146;17.112;2024-01-06T12:56:21;99605.00;;;2.10
68952;BMP180;56000;51.146;17.112;2024-01-06T12:58:54;99608.80;;;2.08
68952;BMP180;56000;51.146;17.112;2024-01-06T13:01:27;99612.00;;;2.00
68952;BMP180;56000;51.146;17.112;2024-01-06T13:04:00;99603.40;;;1.90
68952;BMP180;56000;51.146;17.112;2024-01-06T13:06:33;99604.60;;;1.90
68952;BMP180;56000;51.146;17.112;2024-01-06T13:09:06;99604.40;;;1.84
68952;BMP180;56000;51.146;17.112;2024-01-06T13:11:40;99607.40;;;1.80
68952;BMP180;56000;51.146;17.112;2024-01-06T13:14:13;99612.00;;;1.80
68952;BMP180;56000;51.146;17.112;2024-01-06T13:16:46;99613.00;;;1.80
68952;BMP180;56000;51.146;17.112;2024-01-06T13:19:19;99614.00;;;1.76
68952;BMP180;56000;51.146;17.112;2024-01-06T13:21:53;99614.60;;;1.70
68952;BMP180;56000;51.146;17.112;2024-01-06T13:24:26;99616.60;;;1.70
68952;BMP180;56000;51.146;17.112;2024-01-06T13:27:00;99624.60;;;1.70
68952;BMP180;56000;51.146;17.112;2024-01-06T13:29:34;99630.20;;;1.70
68952;BMP180;56000;51.146;17.112;2024-01-06T13:32:08;99627.20;;;1.60
68952;BMP180;56000;51.146;17.112;2024-01-06T13:34:42;99629.00;;;1.60
68952;BMP180;56000;51.146;17.112;2024-01-06T13:37:15;99629.00;;;1.60
68952;BMP180;56000;51.146;17.112;2024-01-06T13:39:48;99630.40;;;1.60
68952;BMP180;56000;51.146;17.112;2024-01-06T13:42:21;99638.00;;;1.60
68952;BMP180;56000;51.146;17.112;2024-01-06T13:44:54;99639.20;;;1.60
68952;BMP180;56000;51.146;17.112;2024-01-06T13:47:27;99639.20;;;1.60
68952;BMP180;56000;51.146;17.112;2024-01-06T13:50:00;99643.40;;;1.60
68952;BMP180;56000;51.146;17.112;2024-01-06T13:52:33;99645.40;;;1.54
68952;BMP180;56000;51.146;17.112;2024-01-06T13:55:07;99652.20;;;1.50
68952;BMP180;56000;51.146;17.112;2024-01-06T13:57:40;99646.00;;;1.52
68952;BMP180;56000;51.146;17.112;2024-01-06T14:00:15;99655.00;;;1.60
68952;BMP180;56000;51.146;17.112;2024-01-06T14:02:52;99651.20;;;1.60
68952;BMP180;56000;51.146;17.112;2024-01-06T14:05:25;99658.60;;;1.50
68952;BMP180;56000;51.146;17.112;2024-01-06T14:07:58;99668.00;;;1.50
68952;BMP180;56000;51.146;17.112;2024-01-06T14:10:31;99670.80;;;1.50
68952;BMP180;56000;51.146;17.112;2024-01-06T14:13:04;99669.40;;;1.50
68952;BMP180;56000;51.146;17.112;2024-01-06T14:15:39;99676.00;;;1.50
68952;BMP180;56000;51.146;17.112;2024-01-06T14:18:12;99686.40;;;1.46
68952;BMP180;56000;51.146;17.112;2024-01-06T14:20:48;99686.80;;;1.40
68952;BMP180;56000;51.146;17.112;2024-01-06T14:23:21;99685.80;;;1.40
68952;BMP180;56000;51.146;17.112;2024-01-06T14:25:54;99691.40;;;1.40
68952;BMP180;56000;51.146;17.112;2024-01-06T14:28:26;99695.80;;;1.32
68952;BMP180;56000;51.146;17.112;2024-01-06T14:30:59;99696.40;;;1.30
68952;BMP180;56000;51.146;17.112;2024-01-06T14:33:32;99699.00;;;1.30
68952;BMP180;56000;51.146;17.112;2024-01-06T14:36:08;99703.40;;;1.30
68952;BMP180;56000;51.146;17.112;2024-01-06T14:38:41;99711.80;;;1.30
68952;BMP180;56000;51.146;17.112;2024-01-06T14:41:14;99712.20;;;1.30
68952;BMP180;56000;51.146;17.112;2024-01-06T14:43:46;99712.40;;;1.20
68952;BMP180;56000;51.146;17.112;2024-01-06T14:46:19;99711.80;;;1.20
68952;BMP180;56000;51.146;17.112;2024-01-06T14:48:52;99716.40;;;1.20